createdAt,value
2019-05-26T04:31:09.497Z,14.30
2019-05-26T04:33:38.480Z,14.60
2019-05-26T04:36:06.514Z,14.70
2019-05-26T04:38:34.813Z,14.50
2019-05-26T04:41:02.878Z,14.50
2019-05-26T04:43:31.891Z,15.00
2019-05-26T04:46:00.947Z,15.40
2019-05-26T04:48:29.854Z,15.60
2019-05-26T04:50:58.824Z,15.50
2019-05-26T04:53:26.815Z,15.10
2019-05-26T04:55:54.920Z,14.80
2019-05-26T04:58:25.079Z,14.70
2019-05-26T05:00:54.076Z,14.50
2019-05-26T05:03:22.982Z,14.50
2019-05-26T05:05:51.981Z,14.40
2019-05-26T05:08:19.978Z,14.40
2019-05-26T05:10:48.020Z,14.60
2019-05-26T05:13:17.015Z,14.90
2019-05-26T05:15:45.984Z,14.90
2019-05-26T05:18:14.882Z,14.90
2019-05-26T05:20:42.853Z,15.00
2019-05-26T05:23:11.739Z,15.00
2019-05-26T05:25:40.632Z,15.10
2019-05-26T05:28:08.619Z,15.80
2019-05-26T05:30:38.507Z,16.00
2019-05-26T05:33:06.488Z,16.20
2019-05-26T05:35:35.397Z,16.00
2019-05-26T05:38:04.387Z,16.00
2019-05-26T05:40:32.435Z,16.30
2019-05-26T05:43:00.495Z,16.40
2019-05-26T05:45:30.598Z,16.50
2019-05-26T05:47:59.519Z,16.90
2019-05-26T05:50:27.552Z,16.90
2019-05-26T05:52:55.619Z,16.50
2019-05-26T05:55:23.680Z,16.40
2019-05-26T05:57:51.720Z,16.80
2019-05-26T06:00:21.061Z,16.90
2019-05-26T06:02:49.121Z,17.20
2019-05-26T06:05:17.220Z,17.10
2019-05-26T06:07:45.243Z,17.40
2019-05-26T06:10:14.542Z,17.70
2019-05-26T06:12:43.518Z,17.80
2019-05-26T06:15:15.577Z,17.90
2019-05-26T06:17:43.401Z,18.00
2019-05-26T06:20:11.598Z,18.00
2019-05-26T06:22:39.644Z,18.10
2019-05-26T06:25:07.700Z,18.10
2019-05-26T06:27:35.738Z,18.10
2019-05-26T06:30:05.203Z,18.00
2019-05-26T06:32:33.180Z,18.10
2019-05-26T06:35:01.208Z,18.10
2019-05-26T06:37:29.184Z,18.30
2019-05-26T06:39:58.174Z,18.40
2019-05-26T06:42:26.156Z,18.50
2019-05-26T06:44:54.313Z,18.50
2019-05-26T06:47:22.376Z,18.40
2019-05-26T06:49:50.450Z,18.30
2019-05-26T06:52:18.497Z,18.30
2019-05-26T06:54:47.570Z,18.30
2019-05-26T06:57:15.967Z,18.30
2019-05-26T06:59:43.963Z,18.20
2019-05-26T07:02:12.920Z,18.30
2019-05-26T07:04:41.917Z,18.30
2019-05-26T07:07:10.808Z,18.30
2019-05-26T07:09:38.850Z,18.40
2019-05-26T07:12:06.897Z,18.50
2019-05-26T07:14:35.954Z,18.50
2019-05-26T07:17:03.987Z,18.50
2019-05-26T07:19:32.924Z,18.60
2019-05-26T07:22:00.991Z,18.70
2019-05-26T07:24:29.623Z,18.70
2019-05-26T07:26:58.653Z,18.70
2019-05-26T07:29:26.643Z,18.70
2019-05-26T07:31:54.615Z,18.90
2019-05-26T07:34:23.685Z,18.90
2019-05-26T07:36:51.860Z,19.00
2019-05-26T07:39:19.977Z,19.00
2019-05-26T07:41:48.068Z,19.10
2019-05-26T07:44:16.273Z,19.10
2019-05-26T07:46:45.341Z,19.10
2019-05-26T07:49:13.407Z,19.20
2019-05-26T07:51:41.468Z,19.10
2019-05-26T07:54:24.499Z,19.20
2019-05-26T07:56:39.150Z,19.30
2019-05-26T07:59:07.185Z,19.40
2019-05-26T08:01:36.567Z,19.50
2019-05-26T08:04:05.703Z,19.50
2019-05-26T08:06:33.754Z,19.50
2019-05-26T08:09:02.642Z,19.50
2019-05-26T08:11:31.618Z,19.50
2019-05-26T08:13:59.626Z,19.50
2019-05-26T08:16:27.636Z,19.50
2019-05-26T08:18:55.694Z,19.30
2019-05-26T08:21:23.759Z,19.10
2019-05-26T08:23:51.745Z,19.30
2019-05-26T08:26:19.789Z,19.20
2019-05-26T08:28:47.789Z,19.30
2019-05-26T08:31:16.697Z,19.50
2019-05-26T08:33:44.765Z,19.50
2019-05-26T08:36:13.682Z,19.60
2019-05-26T08:38:42.673Z,19.60
2019-05-26T08:41:11.711Z,19.80
2019-05-26T08:43:39.780Z,19.90
2019-05-26T08:46:07.812Z,20.00
2019-05-26T08:48:36.815Z,20.20
2019-05-26T08:51:04.977Z,20.30
2019-05-26T08:53:32.962Z,20.20
2019-05-26T08:56:01.019Z,19.90
2019-05-26T08:58:29.514Z,20.00
2019-05-26T09:00:57.618Z,20.30
2019-05-26T09:03:25.609Z,20.40
2019-05-26T09:05:53.685Z,20.50
2019-05-26T09:08:22.607Z,20.50
2019-05-26T09:10:50.647Z,20.50
2019-05-26T09:13:18.788Z,20.50
2019-05-26T09:15:46.818Z,20.70
2019-05-26T09:18:14.825Z,20.60
2019-05-26T09:20:43.797Z,20.80
2019-05-26T09:23:11.814Z,20.70
2019-05-26T09:25:39.868Z,20.60
2019-05-26T09:28:07.854Z,20.80
2019-05-26T09:30:36.767Z,20.90
2019-05-26T09:33:04.764Z,20.90
2019-05-26T09:35:32.764Z,20.90
2019-05-26T09:38:00.775Z,21.00
2019-05-26T09:40:28.763Z,21.00
2019-05-26T09:42:57.231Z,21.10
2019-05-26T09:45:25.840Z,21.10
2019-05-26T09:47:54.766Z,21.20
2019-05-26T09:50:22.983Z,21.40
2019-05-26T09:52:51.305Z,21.40
2019-05-26T09:55:19.589Z,21.40
2019-05-26T09:57:47.873Z,21.40
2019-05-26T10:00:16.558Z,21.40
2019-05-26T10:02:44.666Z,21.60
2019-05-26T10:05:13.051Z,21.50
2019-05-26T10:07:41.138Z,21.60
2019-05-26T10:10:09.406Z,21.50
2019-05-26T10:12:38.403Z,21.50
2019-05-26T10:15:07.668Z,21.60
2019-05-26T10:17:35.801Z,21.60
2019-05-26T10:20:06.935Z,21.80
2019-05-26T10:22:35.460Z,21.70
2019-05-26T10:25:06.901Z,21.60
2019-05-26T10:27:35.914Z,21.80
2019-05-26T10:30:08.252Z,21.90
2019-05-26T10:32:36.706Z,22.00
2019-05-26T10:35:06.566Z,22.10
2019-05-26T10:37:34.927Z,22.00
2019-05-26T10:40:05.520Z,22.10
2019-05-26T10:42:33.780Z,22.10
2019-05-26T10:45:02.032Z,22.20
2019-05-26T10:47:30.224Z,22.30
2019-05-26T10:49:58.504Z,22.30
2019-05-26T10:52:26.750Z,22.40
2019-05-26T10:54:55.052Z,22.40
2019-05-26T10:57:23.281Z,22.50
2019-05-26T10:59:51.555Z,22.40
2019-05-26T11:02:19.690Z,22.30
2019-05-26T11:04:48.019Z,22.20
2019-05-26T11:07:16.055Z,22.10
2019-05-26T11:09:44.042Z,22.20
2019-05-26T11:12:12.040Z,22.40
2019-05-26T11:14:40.970Z,22.60
2019-05-26T11:17:08.971Z,22.60
2019-05-26T11:19:36.951Z,22.50
2019-05-26T11:22:04.998Z,22.60
2019-05-26T11:24:33.986Z,22.50
2019-05-26T11:27:09.540Z,22.40
2019-05-26T11:29:31.779Z,22.40
2019-05-26T11:31:59.751Z,22.10
2019-05-26T11:34:28.048Z,22.00
2019-05-26T11:36:56.120Z,21.80
2019-05-26T11:39:25.493Z,22.00
2019-05-26T11:41:55.449Z,22.20
2019-05-26T11:44:23.517Z,22.70
2019-05-26T11:46:52.455Z,22.80
2019-05-26T11:49:20.508Z,22.90
2019-05-26T11:51:48.497Z,23.10
2019-05-26T11:54:16.573Z,23.10
2019-05-26T11:56:50.324Z,23.30
2019-05-26T11:59:19.244Z,23.40
2019-05-26T12:01:48.265Z,23.40
2019-05-26T12:04:17.353Z,23.30
2019-05-26T12:06:46.395Z,23.30
2019-05-26T12:09:15.370Z,23.60
2019-05-26T12:11:44.326Z,23.70
2019-05-26T12:14:12.340Z,23.60
2019-05-26T12:16:42.297Z,23.70
2019-05-26T12:19:10.379Z,23.50
2019-05-26T12:21:38.361Z,23.50
2019-05-26T12:24:08.307Z,23.50
2019-05-26T12:26:37.251Z,23.40
2019-05-26T12:29:06.243Z,23.30
2019-05-26T12:31:36.181Z,23.40
2019-05-26T12:34:04.177Z,23.70
2019-05-26T12:36:32.383Z,23.60
2019-05-26T12:39:00.371Z,23.30
2019-05-26T12:41:28.369Z,23.50
2019-05-26T12:43:56.356Z,23.10
2019-05-26T12:46:24.355Z,23.40
2019-05-26T12:48:52.438Z,23.60
2019-05-26T12:51:21.364Z,23.40
2019-05-26T12:53:49.353Z,23.20
2019-05-26T12:56:18.333Z,23.50
2019-05-26T12:58:46.337Z,23.60
2019-05-26T13:01:15.303Z,23.80
2019-05-26T13:03:43.349Z,24.00
2019-05-26T13:06:12.311Z,24.30
2019-05-26T13:08:40.321Z,24.50
2019-05-26T13:11:08.292Z,24.60
2019-05-26T13:13:36.300Z,24.40
2019-05-26T13:16:04.706Z,24.50
2019-05-26T13:18:32.711Z,24.50
2019-05-26T13:21:00.747Z,24.40
2019-05-26T13:23:28.868Z,24.20
2019-05-26T13:25:57.083Z,24.30
2019-05-26T13:28:26.137Z,24.60
2019-05-26T13:30:55.289Z,24.60
2019-05-26T13:33:23.313Z,24.50
2019-05-26T13:35:51.352Z,24.50
2019-05-26T13:38:19.347Z,24.40
2019-05-26T13:40:47.328Z,24.20
2019-05-26T13:43:15.379Z,23.90
2019-05-26T13:45:43.368Z,23.90
2019-05-26T13:48:11.401Z,23.70
2019-05-26T13:50:39.471Z,23.70
2019-05-26T13:53:07.752Z,23.60
2019-05-26T13:55:35.759Z,23.60
2019-05-26T13:58:03.875Z,23.70
2019-05-26T14:00:31.876Z,23.60
2019-05-26T14:03:00.856Z,23.50
2019-05-26T14:05:31.180Z,23.40
2019-05-26T14:08:00.996Z,23.60
2019-05-26T14:10:31.178Z,23.30
2019-05-26T14:13:04.669Z,23.40
2019-05-26T14:15:38.710Z,23.40
2019-05-26T14:18:05.626Z,23.30
2019-05-26T14:20:38.943Z,23.20
2019-05-26T14:23:07.553Z,23.30
2019-05-26T14:25:36.822Z,23.30
2019-05-26T14:28:07.678Z,23.30
2019-05-26T14:30:44.993Z,23.50
2019-05-26T14:33:13.097Z,23.40
2019-05-26T14:35:41.152Z,23.60
2019-05-26T14:38:09.130Z,23.70
2019-05-26T14:40:38.079Z,23.60
2019-05-26T14:43:06.141Z,23.30
2019-05-26T14:45:35.594Z,23.40
2019-05-26T14:48:04.985Z,23.40
2019-05-26T14:50:33.126Z,23.60
2019-05-26T14:53:01.125Z,23.50
2019-05-26T14:55:30.208Z,23.60
2019-05-26T14:58:12.342Z,23.40
2019-05-26T15:00:29.093Z,23.40
2019-05-26T15:02:58.800Z,23.70
2019-05-26T15:05:26.812Z,23.40
2019-05-26T15:07:54.816Z,23.60
2019-05-26T15:10:22.921Z,23.40
2019-05-26T15:12:51.009Z,23.60
2019-05-26T15:15:20.174Z,23.70
2019-05-26T15:17:48.358Z,23.70
2019-05-26T15:20:17.521Z,23.90
2019-05-26T15:22:47.456Z,24.30
2019-05-26T15:25:16.470Z,24.40
2019-05-26T15:27:46.706Z,24.30
2019-05-26T15:30:15.061Z,24.20
2019-05-26T15:32:43.166Z,24.30
2019-05-26T15:35:12.478Z,24.50
2019-05-26T15:37:40.646Z,24.50
2019-05-26T15:40:08.738Z,24.40
2019-05-26T15:42:36.965Z,24.10
2019-05-26T15:45:06.459Z,24.00
2019-05-26T15:47:34.443Z,23.70
2019-05-26T15:50:02.873Z,23.70
2019-05-26T15:52:30.853Z,23.40
2019-05-26T15:54:58.835Z,23.40
2019-05-26T15:57:27.183Z,23.30
2019-05-26T15:59:56.158Z,23.40
2019-05-26T16:02:24.197Z,23.50
2019-05-26T16:04:52.172Z,23.70
2019-05-26T16:07:20.196Z,23.60
2019-05-26T16:09:48.184Z,23.60
2019-05-26T16:12:16.193Z,23.80
2019-05-26T16:14:44.251Z,23.70
2019-05-26T16:17:12.231Z,23.60
2019-05-26T16:19:40.222Z,23.60
2019-05-26T16:22:08.231Z,23.70
2019-05-26T16:24:36.267Z,23.80
2019-05-26T16:27:18.185Z,23.90
2019-05-26T16:29:35.037Z,23.80
2019-05-26T16:32:03.058Z,23.70
2019-05-26T16:34:31.121Z,23.80
2019-05-26T16:37:00.048Z,23.70
2019-05-26T16:39:36.489Z,23.70
2019-05-26T16:41:58.754Z,23.80
2019-05-26T16:44:26.798Z,23.90
2019-05-26T16:46:56.797Z,23.70
2019-05-26T16:49:29.965Z,23.90
2019-05-26T16:51:58.152Z,23.80
2019-05-26T16:54:26.212Z,23.80
2019-05-26T16:56:54.290Z,23.70
2019-05-26T16:59:22.365Z,23.70
2019-05-26T17:01:50.378Z,24.00
2019-05-26T17:04:18.483Z,24.10
2019-05-26T17:06:46.588Z,24.10
2019-05-26T17:09:14.570Z,24.00
2019-05-26T17:11:42.620Z,23.70
2019-05-26T17:14:10.674Z,23.60
2019-05-26T17:16:39.174Z,23.60
2019-05-26T17:19:07.208Z,23.40
2019-05-26T17:21:35.200Z,23.30
2019-05-26T17:24:03.241Z,23.60
2019-05-26T17:26:31.283Z,23.40
2019-05-26T17:28:59.288Z,23.40
2019-05-26T17:31:27.291Z,23.30
2019-05-26T17:33:55.297Z,23.40
2019-05-26T17:36:23.341Z,23.50
2019-05-26T17:38:51.329Z,23.70
2019-05-26T17:41:19.455Z,24.00
2019-05-26T17:43:47.465Z,24.20
2019-05-26T17:46:15.485Z,24.40
2019-05-26T17:48:43.509Z,24.30
2019-05-26T17:51:11.537Z,24.20
2019-05-26T17:53:39.523Z,24.20
2019-05-26T17:56:07.510Z,24.20
2019-05-26T17:58:35.569Z,24.30
2019-05-26T18:01:03.552Z,24.40
2019-05-26T18:03:31.581Z,24.40
2019-05-26T18:05:59.571Z,24.40
2019-05-26T18:08:27.558Z,24.30
2019-05-26T18:10:55.601Z,24.20
2019-05-26T18:13:23.597Z,24.30
2019-05-26T18:15:51.609Z,24.30
2019-05-26T18:18:19.616Z,24.30
2019-05-26T18:20:47.666Z,24.40
2019-05-26T18:23:15.858Z,24.30
2019-05-26T18:25:43.836Z,24.30
2019-05-26T18:28:12.899Z,24.10
2019-05-26T18:30:40.898Z,24.20
2019-05-26T18:33:08.895Z,24.40
2019-05-26T18:35:36.882Z,24.50
2019-05-26T18:38:04.959Z,24.30
2019-05-26T18:40:32.979Z,24.20
2019-05-26T18:43:00.996Z,24.00
2019-05-26T18:45:29.055Z,24.10
2019-05-26T18:48:02.865Z,24.00
2019-05-26T18:50:26.781Z,23.70
2019-05-26T18:52:54.797Z,23.20
2019-05-26T18:55:22.782Z,22.80
2019-05-26T18:57:50.836Z,22.50
2019-05-26T19:00:18.925Z,22.20
2019-05-26T19:02:47.015Z,22.00
2019-05-26T19:05:15.284Z,21.80
2019-05-26T19:07:43.351Z,21.50
2019-05-26T19:10:12.824Z,21.30
2019-05-26T19:12:40.802Z,21.30
2019-05-26T19:15:09.176Z,21.10
2019-05-26T19:17:37.156Z,21.10
2019-05-26T19:20:15.706Z,21.30
2019-05-26T19:22:36.141Z,21.20
2019-05-26T19:25:04.697Z,21.20
2019-05-26T19:27:32.801Z,21.20
2019-05-26T19:30:00.807Z,21.20
2019-05-26T19:32:28.863Z,20.90
2019-05-26T19:34:56.934Z,21.00
2019-05-26T19:37:25.356Z,21.00
2019-05-26T19:39:53.336Z,21.10
2019-05-26T19:42:21.393Z,21.00
2019-05-26T19:44:49.415Z,21.20
2019-05-26T19:47:17.530Z,21.10
2019-05-26T19:49:45.582Z,20.90
2019-05-26T19:52:13.598Z,21.00
2019-05-26T19:54:41.631Z,21.00
2019-05-26T19:57:09.777Z,20.90
2019-05-26T19:59:37.822Z,20.70
2019-05-26T20:02:17.817Z,20.50
2019-05-26T20:04:35.778Z,20.50
2019-05-26T20:07:03.941Z,20.60
2019-05-26T20:09:32.010Z,20.30
2019-05-26T20:12:00.073Z,19.90
2019-05-26T20:14:28.216Z,19.70
2019-05-26T20:16:56.265Z,19.50
2019-05-26T20:19:24.267Z,19.30
2019-05-26T20:21:52.268Z,19.30
2019-05-26T20:24:20.315Z,19.30
2019-05-26T20:26:48.767Z,19.20
2019-05-26T20:29:16.788Z,19.10
2019-05-26T20:31:45.193Z,19.10
2019-05-26T20:34:13.329Z,18.90
2019-05-26T20:36:41.363Z,18.90
2019-05-26T20:39:09.376Z,19.00
2019-05-26T20:41:37.397Z,18.90
2019-05-26T20:44:07.113Z,18.70
2019-05-26T20:46:35.742Z,18.60
2019-05-26T20:49:04.057Z,18.60
2019-05-26T20:51:32.043Z,18.50
2019-05-26T20:54:00.026Z,18.60
2019-05-26T20:56:28.285Z,18.60
2019-05-26T20:58:58.555Z,18.40
2019-05-26T21:01:26.653Z,18.40
2019-05-26T21:03:54.752Z,18.30
2019-05-26T21:06:22.749Z,18.10
2019-05-26T21:08:50.833Z,18.20
2019-05-26T21:11:19.743Z,18.10
2019-05-26T21:13:47.765Z,18.30
2019-05-26T21:16:15.764Z,18.20
2019-05-26T21:18:43.841Z,18.10
2019-05-26T21:21:11.872Z,18.10
2019-05-26T21:23:39.875Z,18.00
2019-05-26T21:26:08.147Z,18.10
2019-05-26T21:28:36.331Z,18.40
2019-05-26T21:31:04.562Z,18.70
2019-05-26T21:33:32.661Z,18.80
2019-05-26T21:36:00.753Z,19.20
2019-05-26T21:38:28.796Z,19.00
2019-05-26T21:40:56.786Z,18.60
2019-05-26T21:43:24.770Z,18.40
2019-05-26T21:45:52.796Z,18.10
2019-05-26T21:48:20.802Z,18.10
2019-05-26T21:50:48.879Z,18.00
2019-05-26T21:53:16.926Z,17.80
2019-05-26T21:55:45.003Z,18.00
2019-05-26T21:58:13.050Z,18.40
2019-05-26T22:00:45.394Z,18.50
2019-05-26T22:03:13.417Z,18.40
2019-05-26T22:05:41.506Z,18.40
2019-05-26T22:08:09.527Z,18.40
2019-05-26T22:10:37.568Z,18.30
2019-05-26T22:13:05.610Z,18.50
2019-05-26T22:15:33.603Z,18.40
2019-05-26T22:18:01.581Z,18.50
2019-05-26T22:20:29.598Z,18.30
2019-05-26T22:22:57.642Z,18.00
2019-05-26T22:25:25.671Z,18.00
2019-05-26T22:27:53.722Z,17.90
2019-05-26T22:30:21.878Z,17.80
2019-05-26T22:32:49.890Z,18.20
2019-05-26T22:35:17.881Z,18.30
2019-05-26T22:37:45.936Z,18.70
2019-05-26T22:40:14.093Z,18.90
2019-05-26T22:42:42.091Z,18.50
2019-05-26T22:45:11.019Z,18.20
2019-05-26T22:47:39.014Z,18.00
2019-05-26T22:50:07.458Z,18.10
2019-05-26T22:52:35.457Z,18.10
2019-05-26T22:55:24.259Z,18.10
2019-05-26T22:57:52.243Z,18.00
